createdAt,value
2023-04-15T00:03:01.657Z,97338.30
2023-04-15T00:13:09.672Z,97337.86
2023-04-15T00:23:17.469Z,97337.11
2023-04-15T00:33:25.940Z,97339.48
2023-04-15T00:43:32.980Z,97336.48
2023-04-15T00:53:40.267Z,97335.09
2023-04-15T01:03:47.664Z,97341.14
2023-04-15T01:13:57.003Z,97350.11
2023-04-15T01:24:03.196Z,97358.27
2023-04-15T01:34:10.641Z,97359.81
2023-04-15T01:44:17.844Z,97352.73
2023-04-15T01:54:25.481Z,97360.09
2023-04-15T02:04:32.940Z,97354.11
2023-04-15T02:14:40.641Z,97376.85
2023-04-15T02:24:47.138Z,97382.34
2023-04-15T02:34:54.547Z,97384.23
2023-04-15T02:45:01.670Z,97406.21
2023-04-15T02:55:10.558Z,97401.88
2023-04-15T03:05:17.697Z,97414.35
2023-04-15T03:15:23.571Z,97412.34
2023-04-15T03:25:30.877Z,97417.70
2023-04-15T03:35:38.005Z,97418.73
2023-04-15T03:45:45.120Z,97424.03
2023-04-15T03:55:52.585Z,97430.16
2023-04-15T04:05:59.614Z,97446.89
2023-04-15T04:16:07.343Z,97451.04
2023-04-15T04:26:15.010Z,97455.86
2023-04-15T04:36:21.968Z,97463.26
2023-04-15T04:46:29.081Z,97468.63
2023-04-15T04:56:36.038Z,97469.41
2023-04-15T05:06:43.005Z,97487.28
2023-04-15T05:16:49.894Z,97503.51
2023-04-15T05:26:56.258Z,97521.05
2023-04-15T05:37:03.533Z,97512.36
2023-04-15T05:47:11.132Z,97519.04
2023-04-15T05:57:18.182Z,97525.33
2023-04-15T06:07:25.647Z,97544.80
2023-04-15T06:17:32.778Z,97559.36
2023-04-15T06:27:40.024Z,97560.64
2023-04-15T06:37:47.326Z,97558.91
2023-04-15T06:47:54.236Z,97568.38
2023-04-15T06:58:00.801Z,97577.11
2023-04-15T07:08:05.563Z,97595.27
2023-04-15T07:18:12.341Z,97611.36
2023-04-15T07:28:18.806Z,97617.67
2023-04-15T07:38:25.933Z,97616.98
2023-04-15T07:48:34.143Z,97614.01
2023-04-15T07:58:40.594Z,97615.34
2023-04-15T08:08:47.767Z,97628.34
2023-04-15T08:18:57.792Z,97623.86
2023-04-15T08:29:05.216Z,97621.38
2023-04-15T08:39:11.581Z,97620.90
2023-04-15T08:49:19.141Z,97620.95
2023-04-15T08:59:25.119Z,97614.86
2023-04-15T09:09:31.520Z,97618.38
2023-04-15T09:19:38.770Z,97626.89
2023-04-15T09:29:46.297Z,97624.40
2023-04-15T09:39:52.206Z,97620.08
2023-04-15T09:50:03.061Z,97620.26
2023-04-15T10:00:12.093Z,97622.13
2023-04-15T10:10:20.211Z,97619.77
2023-04-15T10:20:28.466Z,97620.42
2023-04-15T10:30:33.576Z,97617.40
2023-04-15T10:40:42.497Z,97612.89
2023-04-15T10:50:57.753Z,97610.76
2023-04-15T11:01:05.766Z,97616.90
2023-04-15T11:11:11.908Z,97619.03
2023-04-15T11:21:19.113Z,97623.21
2023-04-15T11:31:28.816Z,97626.27
2023-04-15T11:41:36.935Z,97633.03
2023-04-15T11:51:44.165Z,97640.14
2023-04-15T12:01:52.696Z,97648.74
2023-04-15T12:12:00.204Z,97660.51
2023-04-15T12:22:10.261Z,97668.89
2023-04-15T12:32:15.666Z,97673.20
2023-04-15T12:42:23.074Z,97682.52
2023-04-15T12:52:30.476Z,97680.73
2023-04-15T13:02:38.011Z,97675.10
2023-04-15T13:12:47.010Z,97686.73
2023-04-15T13:22:55.209Z,97690.30
2023-04-15T13:33:02.333Z,97690.52
2023-04-15T13:43:09.796Z,97695.44
2023-04-15T13:53:17.090Z,97702.89
2023-04-15T14:03:24.332Z,97705.99
2023-04-15T14:13:31.731Z,97715.17
2023-04-15T14:23:38.914Z,97725.96
2023-04-15T14:33:45.427Z,97739.84
2023-04-15T14:43:52.469Z,97755.73
2023-04-15T14:53:58.930Z,97763.61
2023-04-15T15:04:06.560Z,97767.68
2023-04-15T15:14:13.677Z,97778.77
2023-04-15T15:24:20.716Z,97784.79
2023-04-15T15:34:26.766Z,97790.27
2023-04-15T15:44:34.679Z,97807.13
2023-04-15T15:54:42.827Z,97806.08
2023-04-15T16:04:50.581Z,97814.36
2023-04-15T16:14:57.764Z,97813.61
2023-04-15T16:25:05.227Z,97814.45
2023-04-15T16:35:12.948Z,97815.20
2023-04-15T16:45:20.663Z,97827.33
2023-04-15T16:55:28.558Z,97829.83
2023-04-15T17:05:35.982Z,97850.89
2023-04-15T17:15:43.420Z,97872.64
2023-04-15T17:25:51.688Z,97881.66
2023-04-15T17:36:00.298Z,97893.52
2023-04-15T17:46:07.659Z,97907.20
2023-04-15T17:56:14.737Z,97929.38
2023-04-15T18:06:21.159Z,97944.89
2023-04-15T18:16:28.735Z,97964.91
2023-04-15T18:26:36.069Z,97972.21
2023-04-15T18:36:43.208Z,97981.52
2023-04-15T18:46:51.135Z,97990.61
2023-04-15T18:56:58.415Z,97989.21
2023-04-15T19:07:04.876Z,98010.79
2023-04-15T19:17:11.891Z,98034.63
2023-04-15T19:27:19.190Z,98040.55
2023-04-15T19:37:26.465Z,98038.09
2023-04-15T19:47:34.448Z,98042.61
2023-04-15T19:57:42.018Z,98050.17
2023-04-15T20:07:48.606Z,98058.55
2023-04-15T20:17:56.287Z,98059.36
2023-04-15T20:28:03.808Z,98066.04
2023-04-15T20:38:10.882Z,98066.70
2023-04-15T20:48:19.401Z,98077.19
2023-04-15T20:58:26.079Z,98085.47
2023-04-15T21:08:33.229Z,98106.39
2023-04-15T21:18:40.413Z,98111.66
2023-04-15T21:28:47.810Z,98116.19
2023-04-15T21:38:55.162Z,98121.30
2023-04-15T21:49:00.038Z,98119.55
2023-04-15T21:59:07.095Z,98122.51
2023-04-15T22:09:14.631Z,98131.45
2023-04-15T22:19:21.854Z,98133.32
2023-04-15T22:29:29.065Z,98142.16
2023-04-15T22:39:36.587Z,98153.98
2023-04-15T22:49:44.936Z,98169.01
2023-04-15T22:59:51.084Z,98179.67
2023-04-15T23:09:57.515Z,98186.66
2023-04-15T23:20:04.979Z,98192.29
2023-04-15T23:30:12.609Z,98193.55
2023-04-15T23:40:20.046Z,98196.40
2023-04-15T23:50:28.032Z,98197.67
